createdAt,value
2022-11-20T00:00:20.274Z,-2.44
2022-11-20T00:01:42.680Z,-2.44
2022-11-20T00:03:04.183Z,-2.43
2022-11-20T00:04:26.469Z,-2.42
2022-11-20T00:05:50.181Z,-2.42
2022-11-20T00:07:26.625Z,-2.41
2022-11-20T00:08:59.675Z,-2.41
2022-11-20T00:10:26.062Z,-2.41
2022-11-20T00:12:02.210Z,-2.40
2022-11-20T00:13:27.354Z,-2.38
2022-11-20T00:14:55.711Z,-2.38
2022-11-20T00:16:21.697Z,-2.35
2022-11-20T00:17:45.974Z,-2.35
2022-11-20T00:19:10.626Z,-2.34
2022-11-20T00:20:39.669Z,-2.33
2022-11-20T00:22:04.018Z,-2.33
2022-11-20T00:23:26.942Z,-2.32
2022-11-20T00:24:49.370Z,-2.32
2022-11-20T00:26:12.827Z,-2.34
2022-11-20T00:27:35.205Z,-2.35
2022-11-20T00:29:04.095Z,-2.36
2022-11-20T00:30:32.331Z,-2.39
2022-11-20T00:31:59.819Z,-2.43
2022-11-20T00:33:26.291Z,-2.45
2022-11-20T00:34:47.646Z,-2.48
2022-11-20T00:36:14.571Z,-2.50
2022-11-20T00:37:36.660Z,-2.52
2022-11-20T00:39:02.600Z,-2.54
2022-11-20T00:40:24.860Z,-2.56
2022-11-20T00:41:46.962Z,-2.57
2022-11-20T00:43:09.098Z,-2.60
2022-11-20T00:44:31.336Z,-2.61
2022-11-20T00:45:52.709Z,-2.64
2022-11-20T00:47:16.283Z,-2.65
2022-11-20T00:48:38.044Z,-2.67
2022-11-20T00:50:00.409Z,-2.69
2022-11-20T00:51:24.907Z,-2.70
2022-11-20T00:52:47.372Z,-2.71
2022-11-20T00:54:09.624Z,-2.72
2022-11-20T00:55:30.832Z,-2.72
2022-11-20T00:56:55.226Z,-2.73
2022-11-20T00:58:16.343Z,-2.75
2022-11-20T00:59:38.359Z,-2.76
2022-11-20T01:01:04.148Z,-2.77
2022-11-20T01:02:30.289Z,-2.76
2022-11-20T01:03:54.538Z,-2.77
2022-11-20T01:05:18.897Z,-2.77
2022-11-20T01:06:44.479Z,-2.78
2022-11-20T01:08:05.949Z,-2.78
2022-11-20T01:09:27.948Z,-2.77
2022-11-20T01:10:55.757Z,-2.79
2022-11-20T01:12:17.844Z,-2.77
2022-11-20T01:13:40.305Z,-2.76
2022-11-20T01:15:02.487Z,-2.76
2022-11-20T01:16:25.830Z,-2.76
2022-11-20T01:17:49.248Z,-2.75
2022-11-20T01:19:17.677Z,-2.75
2022-11-20T01:20:39.495Z,-2.74
2022-11-20T01:22:01.727Z,-2.75
2022-11-20T01:23:22.994Z,-2.75
2022-11-20T01:24:46.662Z,-2.74
2022-11-20T01:26:09.488Z,-2.74
2022-11-20T01:27:31.659Z,-2.74
2022-11-20T01:28:54.426Z,-2.75
2022-11-20T01:30:16.795Z,-2.75
2022-11-20T01:31:39.207Z,-2.74
2022-11-20T01:33:03.014Z,-2.74
2022-11-20T01:34:26.144Z,-2.73
2022-11-20T01:35:47.638Z,-2.73
2022-11-20T01:37:09.720Z,-2.73
2022-11-20T01:38:30.393Z,-2.74
2022-11-20T01:39:54.787Z,-2.72
2022-11-20T01:41:33.945Z,-2.72
2022-11-20T01:43:22.397Z,-2.72
2022-11-20T01:44:59.385Z,-2.73
2022-11-20T01:46:21.124Z,-2.74
2022-11-20T01:47:47.624Z,-2.76
2022-11-20T01:49:18.803Z,-2.77
2022-11-20T01:50:41.068Z,-2.79
2022-11-20T01:52:07.299Z,-2.80
2022-11-20T01:53:32.338Z,-2.82
2022-11-20T01:55:00.898Z,-2.83
2022-11-20T01:56:29.582Z,-2.85
2022-11-20T01:57:55.814Z,-2.89
2022-11-20T01:59:26.162Z,-2.91
2022-11-20T02:00:59.344Z,-2.93
2022-11-20T02:02:27.234Z,-2.97
2022-11-20T02:03:54.088Z,-2.99
2022-11-20T02:05:33.850Z,-3.03
2022-11-20T02:07:03.580Z,-3.04
2022-11-20T02:08:29.249Z,-3.07
2022-11-20T02:09:59.033Z,-3.09
2022-11-20T02:11:30.048Z,-3.11
2022-11-20T02:13:13.113Z,-3.13
2022-11-20T02:14:35.326Z,-3.16
2022-11-20T02:15:58.283Z,-3.17
2022-11-20T02:17:23.253Z,-3.20
2022-11-20T02:18:45.555Z,-3.21
2022-11-20T02:20:11.743Z,-3.23
2022-11-20T02:21:40.636Z,-3.26
2022-11-20T02:23:07.128Z,-3.27
2022-11-20T02:24:30.851Z,-3.29
2022-11-20T02:25:54.014Z,-3.31
2022-11-20T02:27:18.043Z,-3.32
2022-11-20T02:28:39.443Z,-3.32
2022-11-20T02:30:04.640Z,-3.33
2022-11-20T02:31:25.860Z,-3.33
2022-11-20T02:32:48.178Z,-3.33
2022-11-20T02:34:10.810Z,-3.34
2022-11-20T02:35:44.045Z,-3.33
2022-11-20T02:37:06.531Z,-3.33
2022-11-20T02:38:28.079Z,-3.33
2022-11-20T02:39:53.763Z,-3.33
2022-11-20T02:41:17.529Z,-3.32
2022-11-20T02:42:39.987Z,-3.31
2022-11-20T02:44:01.305Z,-3.31
2022-11-20T02:45:24.810Z,-3.32
2022-11-20T02:46:46.875Z,-3.31
2022-11-20T02:48:08.911Z,-3.32
2022-11-20T02:49:31.142Z,-3.32
2022-11-20T02:50:52.160Z,-3.33
2022-11-20T02:52:14.310Z,-3.34
2022-11-20T02:53:35.315Z,-3.36
2022-11-20T02:54:59.185Z,-3.38
2022-11-20T02:56:21.653Z,-3.39
2022-11-20T02:57:42.867Z,-3.40
2022-11-20T02:59:05.674Z,-3.41
2022-11-20T03:00:27.656Z,-3.41
2022-11-20T03:01:49.771Z,-3.40
2022-11-20T03:03:10.305Z,-3.43
2022-11-20T03:04:32.494Z,-3.43
2022-11-20T03:05:54.554Z,-3.43
2022-11-20T03:07:16.946Z,-3.44
2022-11-20T03:08:38.249Z,-3.44
2022-11-20T03:10:01.864Z,-3.44
2022-11-20T03:11:24.289Z,-3.45
2022-11-20T03:12:46.562Z,-3.46
2022-11-20T03:14:08.961Z,-3.45
2022-11-20T03:15:29.906Z,-3.46
2022-11-20T03:16:52.223Z,-3.44
2022-11-20T03:18:14.722Z,-3.46
2022-11-20T03:19:37.142Z,-3.46
2022-11-20T03:21:03.420Z,-3.44
2022-11-20T03:22:24.813Z,-3.44
2022-11-20T03:23:47.289Z,-3.42
2022-11-20T03:25:10.136Z,-3.41
2022-11-20T03:26:32.366Z,-3.41
2022-11-20T03:27:54.534Z,-3.40
2022-11-20T03:29:16.688Z,-3.39
2022-11-20T03:30:37.721Z,-3.38
2022-11-20T03:32:03.399Z,-3.38
2022-11-20T03:33:23.896Z,-3.39
2022-11-20T03:34:46.014Z,-3.38
2022-11-20T03:36:09.704Z,-3.37
2022-11-20T03:37:32.129Z,-3.36
2022-11-20T03:38:55.429Z,-3.35
2022-11-20T03:40:19.724Z,-3.34
2022-11-20T03:41:44.895Z,-3.33
2022-11-20T03:43:05.965Z,-3.32
2022-11-20T03:44:30.389Z,-3.31
2022-11-20T03:45:51.639Z,-3.30
2022-11-20T03:47:14.056Z,-3.29
2022-11-20T03:48:36.028Z,-3.28
2022-11-20T03:49:57.091Z,-3.26
2022-11-20T03:51:21.566Z,-3.27
2022-11-20T03:52:43.147Z,-3.25
2022-11-20T03:54:07.101Z,-3.22
2022-11-20T03:55:29.358Z,-3.21
2022-11-20T03:56:51.344Z,-3.21
2022-11-20T03:58:22.783Z,-3.18
2022-11-20T03:59:44.802Z,-3.17
2022-11-20T04:01:12.086Z,-3.16
2022-11-20T04:02:35.877Z,-3.15
2022-11-20T04:03:59.202Z,-3.13
2022-11-20T04:05:20.603Z,-3.14
2022-11-20T04:07:04.274Z,-3.14
2022-11-20T04:08:31.399Z,-3.14
2022-11-20T04:09:54.122Z,-3.12
2022-11-20T04:11:22.527Z,-3.12
2022-11-20T04:12:45.663Z,-3.11
2022-11-20T04:14:15.128Z,-3.11
2022-11-20T04:15:38.621Z,-3.11
2022-11-20T04:17:04.134Z,-3.11
2022-11-20T04:18:31.036Z,-3.11
2022-11-20T04:21:41.406Z,-3.13
2022-11-20T04:23:11.830Z,-3.14
2022-11-20T04:24:37.478Z,-3.15
2022-11-20T04:26:03.810Z,-3.15
2022-11-20T04:27:29.664Z,-3.15
2022-11-20T04:28:53.477Z,-3.16
2022-11-20T04:30:28.593Z,-3.16
2022-11-20T04:32:04.615Z,-3.16
2022-11-20T04:33:34.614Z,-3.15
2022-11-20T04:35:06.914Z,-3.15
2022-11-20T04:36:31.190Z,-3.14
2022-11-20T04:38:00.181Z,-3.15
2022-11-20T04:39:36.516Z,-3.15
2022-11-20T04:41:08.751Z,-3.15
2022-11-20T04:42:36.931Z,-3.14
2022-11-20T04:46:47.955Z,-3.17
2022-11-20T04:51:51.591Z,-3.20
2022-11-20T04:54:26.647Z,-3.20
2022-11-20T04:56:26.183Z,-3.24
2022-11-20T04:58:56.746Z,-3.28
2022-11-20T05:04:35.246Z,-3.32
2022-11-20T05:06:03.252Z,-3.34
2022-11-20T05:07:41.673Z,-3.35
2022-11-20T05:09:19.631Z,-3.36
2022-11-20T05:10:42.486Z,-3.37
2022-11-20T05:12:25.775Z,-3.38
2022-11-20T05:14:03.259Z,-3.38
2022-11-20T05:16:10.466Z,-3.39
2022-11-20T05:17:41.966Z,-3.39
2022-11-20T05:19:34.236Z,-3.39
2022-11-20T05:21:08.297Z,-3.42
2022-11-20T05:26:21.708Z,-3.47
2022-11-20T05:28:06.403Z,-3.49
2022-11-20T05:29:29.929Z,-3.49
2022-11-20T05:31:06.274Z,-3.49
2022-11-20T05:32:30.281Z,-3.50
2022-11-20T05:34:10.133Z,-3.50
2022-11-20T05:35:32.222Z,-3.53
2022-11-20T05:37:10.914Z,-3.56
2022-11-20T05:38:32.688Z,-3.59
2022-11-20T05:39:56.176Z,-3.60
2022-11-20T05:41:24.560Z,-3.61
2022-11-20T05:43:04.666Z,-3.65
2022-11-20T05:44:46.376Z,-3.69
2022-11-20T05:46:12.722Z,-3.72
2022-11-20T05:47:36.354Z,-3.74
2022-11-20T05:49:00.185Z,-3.77
2022-11-20T05:50:21.350Z,-3.78
2022-11-20T05:51:43.800Z,-3.80
2022-11-20T05:53:04.809Z,-3.82
2022-11-20T05:54:27.029Z,-3.83
2022-11-20T05:55:49.309Z,-3.84
2022-11-20T05:57:11.237Z,-3.85
2022-11-20T05:58:33.470Z,-3.85
2022-11-20T05:59:57.254Z,-3.86
2022-11-20T06:01:21.039Z,-3.85
2022-11-20T06:02:42.116Z,-3.87
2022-11-20T06:04:04.565Z,-3.87
2022-11-20T06:05:25.541Z,-3.88
2022-11-20T06:06:47.673Z,-3.88
2022-11-20T06:08:09.349Z,-3.90
2022-11-20T06:09:31.782Z,-3.90
2022-11-20T06:10:53.186Z,-3.90
2022-11-20T06:12:16.654Z,-3.90
2022-11-20T06:13:42.002Z,-3.89
2022-11-20T06:15:06.489Z,-3.88
2022-11-20T06:16:28.888Z,-3.88
2022-11-20T06:17:55.446Z,-3.88
2022-11-20T06:19:17.990Z,-3.88
2022-11-20T06:20:42.236Z,-3.87
2022-11-20T06:22:04.425Z,-3.86
2022-11-20T06:23:24.951Z,-3.87
2022-11-20T06:24:50.172Z,-3.87
2022-11-20T06:26:13.381Z,-3.85
2022-11-20T06:27:37.074Z,-3.85
2022-11-20T06:29:16.499Z,-3.84
2022-11-20T06:30:47.483Z,-3.85
2022-11-20T06:32:10.069Z,-3.86
2022-11-20T06:33:50.458Z,-3.85
2022-11-20T06:35:14.245Z,-3.84
2022-11-20T06:36:43.008Z,-3.83
2022-11-20T06:38:05.664Z,-3.82
2022-11-20T06:39:30.488Z,-3.80
2022-11-20T06:40:51.527Z,-3.79
2022-11-20T06:42:16.216Z,-3.78
2022-11-20T06:43:39.961Z,-3.76
2022-11-20T06:45:02.039Z,-3.73
2022-11-20T06:46:24.737Z,-3.70
2022-11-20T06:47:49.495Z,-3.68
2022-11-20T06:49:11.970Z,-3.65
2022-11-20T06:50:34.210Z,-3.63
2022-11-20T06:52:00.707Z,-3.61
2022-11-20T06:53:22.437Z,-3.57
2022-11-20T06:54:44.668Z,-3.55
2022-11-20T06:56:08.805Z,-3.52
2022-11-20T06:57:31.414Z,-3.49
2022-11-20T06:58:53.443Z,-3.46
2022-11-20T07:00:16.485Z,-3.43
2022-11-20T07:01:42.322Z,-3.41
2022-11-20T07:03:06.320Z,-3.39
2022-11-20T07:04:37.357Z,-3.36
2022-11-20T07:06:11.873Z,-3.32
2022-11-20T07:07:35.048Z,-3.29
2022-11-20T07:09:02.950Z,-3.26
2022-11-20T07:10:34.899Z,-3.23
2022-11-20T07:12:08.869Z,-3.19
2022-11-20T07:13:42.722Z,-3.17
2022-11-20T07:15:10.942Z,-3.15
2022-11-20T07:16:38.489Z,-3.14
2022-11-20T07:18:10.875Z,-3.13
2022-11-20T07:19:43.647Z,-3.14
2022-11-20T07:21:15.315Z,-3.13
2022-11-20T07:22:40.699Z,-3.12
2022-11-20T07:24:03.082Z,-3.13
2022-11-20T07:25:24.196Z,-3.13
2022-11-20T07:26:50.059Z,-3.13
2022-11-20T07:28:16.513Z,-3.14
2022-11-20T07:29:48.969Z,-3.13
2022-11-20T07:31:32.712Z,-3.12
2022-11-20T07:33:09.959Z,-3.09
2022-11-20T07:34:44.484Z,-3.10
2022-11-20T07:36:19.086Z,-3.09
2022-11-20T07:37:58.941Z,-3.08
2022-11-20T07:39:38.631Z,-3.08
2022-11-20T07:41:40.454Z,-3.06
2022-11-20T07:43:45.457Z,-3.03
2022-11-20T07:45:27.255Z,-3.00
2022-11-20T07:47:09.556Z,-2.96
2022-11-20T07:51:01.664Z,-2.90
2022-11-20T07:52:33.088Z,-2.86
2022-11-20T07:54:06.301Z,-2.83
2022-11-20T07:55:37.272Z,-2.80
2022-11-20T07:57:00.390Z,-2.77
2022-11-20T07:58:29.018Z,-2.73
2022-11-20T07:59:58.063Z,-2.69
2022-11-20T08:01:20.807Z,-2.67
2022-11-20T08:02:46.371Z,-2.63
2022-11-20T08:04:46.712Z,-2.60
2022-11-20T08:06:45.282Z,-2.56
2022-11-20T08:08:54.970Z,-2.54
2022-11-20T08:10:35.356Z,-2.09
2022-11-20T08:12:15.834Z,-1.08
2022-11-20T08:14:13.185Z,-0.38
2022-11-20T08:15:35.954Z,0.29
2022-11-20T08:16:58.478Z,0.63
2022-11-20T08:18:31.574Z,1.01
2022-11-20T08:19:54.683Z,1.44
2022-11-20T08:21:19.183Z,1.85
2022-11-20T08:22:51.533Z,2.30
2022-11-20T08:24:13.835Z,2.72
2022-11-20T08:25:37.037Z,3.12
2022-11-20T08:27:00.336Z,3.50
2022-11-20T08:28:22.462Z,3.84
2022-11-20T08:29:44.772Z,4.21
2022-11-20T08:31:05.499Z,4.61
2022-11-20T08:32:28.043Z,5.14
2022-11-20T08:33:50.656Z,5.82
2022-11-20T08:35:16.174Z,6.60
2022-11-20T08:36:40.746Z,7.48
2022-11-20T08:38:08.493Z,8.46
2022-11-20T08:39:30.795Z,9.30
2022-11-20T08:41:06.545Z,10.04
2022-11-20T08:42:29.103Z,10.78
2022-11-20T08:43:52.098Z,11.36
2022-11-20T08:45:14.134Z,11.85
2022-11-20T08:46:40.626Z,12.36
2022-11-20T08:48:06.335Z,12.83
2022-11-20T08:49:32.942Z,13.26
2022-11-20T08:52:53.227Z,14.01
2022-11-20T08:54:24.356Z,14.29
2022-11-20T08:56:08.266Z,14.61
2022-11-20T08:58:31.023Z,14.86
2022-11-20T09:00:04.319Z,15.18
2022-11-20T09:01:26.326Z,15.48
2022-11-20T09:03:01.022Z,15.76
2022-11-20T09:04:25.235Z,16.03
2022-11-20T09:07:56.036Z,16.55
2022-11-20T09:09:21.781Z,16.79
2022-11-20T09:10:47.287Z,16.98
2022-11-20T09:12:10.967Z,17.20
2022-11-20T09:13:35.862Z,17.40
2022-11-20T09:15:00.080Z,17.60
2022-11-20T09:16:25.361Z,17.81
2022-11-20T09:17:53.385Z,17.97
2022-11-20T09:21:00.130Z,18.15
2022-11-20T09:22:22.439Z,17.82
2022-11-20T09:23:49.937Z,17.26
2022-11-20T09:25:13.882Z,16.82
2022-11-20T09:26:38.147Z,16.47
2022-11-20T09:28:01.203Z,16.15
2022-11-20T09:29:35.843Z,15.83
2022-11-20T09:30:59.650Z,15.49
2022-11-20T09:33:10.790Z,15.22
2022-11-20T09:34:30.337Z,14.89
2022-11-20T09:35:52.730Z,14.58
2022-11-20T09:37:17.942Z,14.26
2022-11-20T09:38:57.586Z,13.90
2022-11-20T09:40:30.400Z,13.54
2022-11-20T09:42:47.057Z,13.13
2022-11-20T09:44:23.555Z,12.67
2022-11-20T09:46:13.968Z,12.26
2022-11-20T09:48:09.310Z,11.73
2022-11-20T09:49:45.162Z,11.29
2022-11-20T09:51:28.572Z,10.88
2022-11-20T09:53:21.692Z,10.41
2022-11-20T09:55:08.555Z,10.06
2022-11-20T09:57:04.753Z,9.65
2022-11-20T09:58:54.444Z,9.22
2022-11-20T10:00:29.494Z,8.89
2022-11-20T10:02:02.185Z,8.50
2022-11-20T10:03:48.279Z,8.08
2022-11-20T10:05:25.031Z,7.72
2022-11-20T10:07:30.963Z,7.36
2022-11-20T10:08:55.323Z,6.99
2022-11-20T10:10:19.827Z,6.72
2022-11-20T10:11:55.082Z,6.46
2022-11-20T10:13:43.958Z,6.19
2022-11-20T10:15:27.526Z,5.89
2022-11-20T10:17:04.166Z,5.61
2022-11-20T10:18:58.476Z,5.35
2022-11-20T10:21:46.486Z,5.07
2022-11-20T10:23:08.070Z,4.70
2022-11-20T10:25:08.502Z,4.41
2022-11-20T10:26:43.721Z,4.09
2022-11-20T10:28:31.086Z,3.80
2022-11-20T10:30:13.780Z,3.55
2022-11-20T10:31:44.848Z,3.32
2022-11-20T10:33:23.763Z,3.14
2022-11-20T10:35:14.302Z,3.00
2022-11-20T10:37:03.639Z,2.86
2022-11-20T10:47:26.836Z,2.34
2022-11-20T10:49:04.416Z,2.29
2022-11-20T10:50:32.738Z,2.23
2022-11-20T10:52:13.315Z,2.19
2022-11-20T10:54:11.319Z,2.13
2022-11-20T10:55:44.835Z,2.13
2022-11-20T10:57:18.244Z,2.12
2022-11-20T10:58:47.738Z,2.12
2022-11-20T11:00:25.386Z,2.13
2022-11-20T11:01:59.793Z,2.13
2022-11-20T11:03:29.831Z,2.13
2022-11-20T11:04:54.170Z,2.18
2022-11-20T11:06:24.718Z,2.19
2022-11-20T11:07:49.010Z,2.23
2022-11-20T11:09:16.042Z,2.24
2022-11-20T11:10:47.243Z,2.25
2022-11-20T11:12:11.245Z,2.26
2022-11-20T11:13:36.298Z,2.28
2022-11-20T11:14:59.912Z,2.29
2022-11-20T11:16:29.511Z,2.30
2022-11-20T11:17:56.934Z,2.31
2022-11-20T11:19:19.068Z,2.33
2022-11-20T11:20:41.268Z,2.34
2022-11-20T11:22:02.563Z,2.32
2022-11-20T11:23:37.434Z,2.30
2022-11-20T11:25:01.451Z,2.30
2022-11-20T11:26:28.293Z,2.31
2022-11-20T11:27:54.004Z,2.32
2022-11-20T11:29:21.336Z,2.33
2022-11-20T11:30:49.683Z,2.35
2022-11-20T11:32:15.964Z,2.36
2022-11-20T11:33:39.984Z,2.38
2022-11-20T11:35:04.541Z,2.40
2022-11-20T11:36:29.312Z,2.41
2022-11-20T11:37:52.635Z,2.42
2022-11-20T11:39:19.936Z,2.43
2022-11-20T11:40:43.151Z,2.42
2022-11-20T11:42:05.817Z,2.41
2022-11-20T11:43:53.803Z,2.40
2022-11-20T11:45:18.533Z,2.36
2022-11-20T11:46:42.326Z,2.36
2022-11-20T11:48:06.701Z,2.36
2022-11-20T11:49:28.046Z,2.35
2022-11-20T11:50:55.094Z,2.34
2022-11-20T11:52:20.960Z,2.33
2022-11-20T11:53:45.335Z,2.34
2022-11-20T11:55:13.792Z,2.33
2022-11-20T11:56:36.070Z,2.34
2022-11-20T11:58:09.709Z,2.34
2022-11-20T11:59:49.542Z,2.34
2022-11-20T12:01:25.062Z,2.36
2022-11-20T12:02:58.938Z,2.36
2022-11-20T12:04:31.576Z,2.39
2022-11-20T12:06:06.278Z,2.40
2022-11-20T12:07:48.569Z,2.42
2022-11-20T12:09:17.776Z,2.45
2022-11-20T12:10:48.750Z,2.48
2022-11-20T12:12:22.113Z,2.51
2022-11-20T12:13:53.452Z,2.55
2022-11-20T12:15:28.512Z,2.57
2022-11-20T12:16:54.456Z,2.61
2022-11-20T12:18:27.247Z,2.65
2022-11-20T12:19:52.411Z,2.67
2022-11-20T12:21:33.688Z,2.70
2022-11-20T12:23:02.790Z,2.73
2022-11-20T12:24:53.753Z,2.76
2022-11-20T12:26:25.336Z,2.79
2022-11-20T12:28:03.873Z,2.80
2022-11-20T12:29:40.303Z,2.84
2022-11-20T12:31:21.549Z,2.87
2022-11-20T12:33:15.445Z,2.91
2022-11-20T12:34:54.138Z,2.93
2022-11-20T12:36:27.256Z,2.96
2022-11-20T12:38:05.331Z,2.99
2022-11-20T12:39:45.920Z,3.02
2022-11-20T12:41:42.720Z,3.05
2022-11-20T12:43:35.700Z,3.07
2022-11-20T12:45:34.888Z,3.09
2022-11-20T12:47:12.711Z,3.10
2022-11-20T12:48:46.646Z,3.13
2022-11-20T12:50:22.017Z,3.15
2022-11-20T12:52:19.046Z,3.14
2022-11-20T12:53:51.492Z,3.17
2022-11-20T12:55:25.040Z,3.19
2022-11-20T12:57:03.448Z,3.20
2022-11-20T12:58:42.948Z,3.20
2022-11-20T13:00:15.496Z,3.18
2022-11-20T13:01:54.727Z,3.18
2022-11-20T13:03:45.074Z,3.17
2022-11-20T13:05:22.577Z,3.16
2022-11-20T13:06:46.639Z,3.17
2022-11-20T13:08:22.432Z,3.17
2022-11-20T13:09:55.465Z,3.16
2022-11-20T13:11:25.148Z,3.17
2022-11-20T13:12:52.216Z,3.17
2022-11-20T13:14:29.024Z,3.18
2022-11-20T13:15:58.131Z,3.19
2022-11-20T13:17:26.183Z,3.19
2022-11-20T13:18:50.107Z,3.19
2022-11-20T13:20:17.653Z,3.20
2022-11-20T13:21:41.718Z,3.20
2022-11-20T13:23:06.297Z,3.21
2022-11-20T13:24:38.329Z,3.22
2022-11-20T13:26:08.858Z,3.22
2022-11-20T13:27:32.206Z,3.22
2022-11-20T13:29:07.626Z,3.21
2022-11-20T13:30:31.326Z,3.21
2022-11-20T13:31:53.834Z,3.21
2022-11-20T13:33:31.072Z,3.20
2022-11-20T13:35:02.906Z,3.20
2022-11-20T13:36:29.186Z,3.19
2022-11-20T13:38:10.369Z,3.17
2022-11-20T13:39:47.751Z,3.18
2022-11-20T13:41:47.704Z,3.16
2022-11-20T13:44:08.701Z,3.13
2022-11-20T13:46:29.551Z,3.13
2022-11-20T13:51:06.002Z,3.08
2022-11-20T13:56:22.663Z,2.98
2022-11-20T14:00:49.394Z,2.91
2022-11-20T14:02:53.626Z,2.87
2022-11-20T14:04:33.338Z,2.84
2022-11-20T14:06:12.290Z,2.83
2022-11-20T14:08:06.639Z,2.79
2022-11-20T14:09:59.243Z,2.78
2022-11-20T14:11:30.916Z,2.75
2022-11-20T14:12:57.903Z,2.74
2022-11-20T14:14:51.521Z,2.73
2022-11-20T14:16:14.423Z,2.71
2022-11-20T14:17:44.746Z,2.70
2022-11-20T14:19:32.780Z,2.67
2022-11-20T14:20:55.172Z,2.65
2022-11-20T14:22:24.300Z,2.63
2022-11-20T14:24:38.959Z,2.60
2022-11-20T14:27:01.379Z,2.56
2022-11-20T14:29:31.532Z,2.53
2022-11-20T14:31:30.822Z,2.48
2022-11-20T14:32:59.656Z,2.47
2022-11-20T14:34:47.847Z,2.44
2022-11-20T14:38:07.593Z,2.37
2022-11-20T14:39:38.676Z,2.35
2022-11-20T14:42:04.552Z,2.31
2022-11-20T14:43:37.299Z,2.28
2022-11-20T14:45:20.526Z,2.24
2022-11-20T14:46:45.609Z,2.21
2022-11-20T14:48:15.954Z,2.19
2022-11-20T14:50:20.513Z,2.14
2022-11-20T14:51:46.736Z,2.13
2022-11-20T14:53:18.857Z,2.09
2022-11-20T14:54:47.551Z,2.05
2022-11-20T14:56:11.638Z,2.04
2022-11-20T14:57:38.944Z,2.02
2022-11-20T14:59:07.816Z,1.98
2022-11-20T15:01:06.495Z,1.93
2022-11-20T15:02:36.052Z,1.91
2022-11-20T15:04:14.139Z,1.88
2022-11-20T15:06:14.219Z,1.83
2022-11-20T15:08:06.722Z,1.81
2022-11-20T15:09:33.670Z,1.77
2022-11-20T15:11:06.507Z,1.75
2022-11-20T15:12:48.577Z,1.70
2022-11-20T15:14:17.148Z,1.68
2022-11-20T15:15:52.179Z,1.64
2022-11-20T15:17:14.805Z,1.62
2022-11-20T15:18:44.378Z,1.59
2022-11-20T15:20:16.763Z,1.57
2022-11-20T15:21:47.999Z,1.55
2022-11-20T15:23:14.584Z,1.51
2022-11-20T15:24:36.831Z,1.48
2022-11-20T15:26:02.385Z,1.46
2022-11-20T15:27:33.740Z,1.45
2022-11-20T15:28:56.455Z,1.43
2022-11-20T15:30:20.602Z,1.41
2022-11-20T15:31:55.826Z,1.39
2022-11-20T15:33:44.104Z,1.38
2022-11-20T15:35:29.491Z,1.35
2022-11-20T15:36:59.364Z,1.34
2022-11-20T15:38:24.949Z,1.32
2022-11-20T15:39:48.051Z,1.30
2022-11-20T15:41:13.874Z,1.28
2022-11-20T15:42:37.858Z,1.26
2022-11-20T15:44:05.673Z,1.25
2022-11-20T15:45:30.993Z,1.22
2022-11-20T15:46:53.943Z,1.21
2022-11-20T15:48:30.427Z,1.20
2022-11-20T15:49:59.158Z,1.17
2022-11-20T15:51:31.986Z,1.14
2022-11-20T15:53:08.383Z,1.13
2022-11-20T15:54:39.514Z,1.11
2022-11-20T15:56:18.963Z,1.09
2022-11-20T15:58:14.460Z,1.07
2022-11-20T16:00:11.822Z,1.04
2022-11-20T16:01:52.302Z,1.03
2022-11-20T16:03:22.610Z,1.01
2022-11-20T16:04:56.749Z,1.00
2022-11-20T16:07:18.065Z,0.96
2022-11-20T16:08:46.765Z,0.95
2022-11-20T16:10:47.107Z,0.92
2022-11-20T16:14:33.458Z,0.88
2022-11-20T16:16:10.718Z,0.86
2022-11-20T16:17:45.263Z,0.83
2022-11-20T16:19:22.010Z,0.82
2022-11-20T16:21:14.963Z,0.81
2022-11-20T16:22:55.763Z,0.77
2022-11-20T16:24:39.274Z,0.76
2022-11-20T16:26:49.739Z,0.73
2022-11-20T16:28:36.458Z,0.72
2022-11-20T16:31:04.498Z,0.71
2022-11-20T16:32:29.545Z,0.70
2022-11-20T16:34:23.128Z,0.69
2022-11-20T16:35:46.485Z,0.69
2022-11-20T16:37:44.307Z,0.66
2022-11-20T16:39:09.125Z,0.66
2022-11-20T16:40:43.944Z,0.65
2022-11-20T16:42:11.649Z,0.63
2022-11-20T16:46:17.709Z,0.60
2022-11-20T16:47:58.835Z,0.58
2022-11-20T16:50:02.186Z,0.56
2022-11-20T16:51:46.345Z,0.54
2022-11-20T16:53:14.646Z,0.52
2022-11-20T16:54:39.676Z,0.52
2022-11-20T16:56:15.631Z,0.50
2022-11-20T16:57:50.294Z,0.49
2022-11-20T16:59:30.140Z,0.47
2022-11-20T17:01:07.203Z,0.47
2022-11-20T17:02:34.716Z,0.45
2022-11-20T17:04:26.194Z,0.42
2022-11-20T17:05:55.671Z,0.41
2022-11-20T17:07:47.856Z,0.39
2022-11-20T17:11:21.357Z,0.36
2022-11-20T17:12:46.722Z,0.34
2022-11-20T17:14:19.564Z,0.33
2022-11-20T17:15:44.754Z,0.29
2022-11-20T17:17:15.730Z,0.31
2022-11-20T17:18:38.948Z,0.28
2022-11-20T17:20:10.182Z,0.27
2022-11-20T17:21:37.421Z,0.26
2022-11-20T17:23:00.375Z,0.25
2022-11-20T17:24:32.352Z,0.25
2022-11-20T17:26:00.493Z,0.21
2022-11-20T17:27:27.088Z,0.20
2022-11-20T17:28:56.597Z,0.19
2022-11-20T17:30:44.288Z,0.18
2022-11-20T17:33:44.398Z,0.14
2022-11-20T17:35:10.209Z,0.13
2022-11-20T17:36:47.170Z,0.11
2022-11-20T17:38:17.893Z,0.10
2022-11-20T17:39:46.305Z,0.10
2022-11-20T17:41:14.597Z,0.08
2022-11-20T17:42:41.743Z,0.07
2022-11-20T17:44:06.957Z,0.04
2022-11-20T17:45:35.132Z,0.03
2022-11-20T17:47:08.165Z,0.02
2022-11-20T17:48:43.031Z,0.02
2022-11-20T17:50:13.659Z,-0.02
2022-11-20T17:52:15.013Z,-0.02
2022-11-20T18:01:43.280Z,-0.14
2022-11-20T18:03:51.170Z,-0.15
2022-11-20T18:05:16.866Z,-0.19
2022-11-20T18:06:41.199Z,-0.20
2022-11-20T18:14:17.238Z,-0.32
2022-11-20T18:16:08.863Z,-0.33
2022-11-20T18:20:43.909Z,-0.33
2022-11-20T18:36:02.547Z,-0.33
2022-11-20T18:37:56.675Z,-0.35
2022-11-20T18:39:31.036Z,-0.37
2022-11-20T18:49:40.689Z,-0.42
2022-11-20T18:55:55.818Z,-0.43
2022-11-20T18:57:21.700Z,-0.43
2022-11-20T18:58:44.503Z,-0.41
2022-11-20T19:00:09.664Z,-0.43
2022-11-20T19:01:32.811Z,-0.43
2022-11-20T19:02:55.780Z,-0.41
2022-11-20T19:04:19.733Z,-0.43
2022-11-20T19:05:44.777Z,-0.43
2022-11-20T19:07:07.175Z,-0.45
2022-11-20T19:08:32.043Z,-0.46
2022-11-20T19:09:56.608Z,-0.46
2022-11-20T19:11:22.380Z,-0.48
2022-11-20T19:12:54.282Z,-0.48
2022-11-20T19:14:26.417Z,-0.49
2022-11-20T19:15:49.118Z,-0.50
2022-11-20T19:17:13.045Z,-0.50
2022-11-20T19:18:35.661Z,-0.49
2022-11-20T19:19:58.072Z,-0.50
2022-11-20T19:21:22.292Z,-0.50
2022-11-20T19:22:44.693Z,-0.49
2022-11-20T19:24:11.715Z,-0.45
2022-11-20T19:25:38.210Z,-0.44
2022-11-20T19:27:04.783Z,-0.41
2022-11-20T19:28:27.148Z,-0.39
2022-11-20T19:29:49.544Z,-0.37
2022-11-20T19:31:14.047Z,-0.34
2022-11-20T19:32:36.110Z,-0.32
2022-11-20T19:33:59.484Z,-0.31
2022-11-20T19:35:21.854Z,-0.30
2022-11-20T19:36:56.096Z,-0.29
2022-11-20T19:38:19.190Z,-0.27
2022-11-20T19:39:45.192Z,-0.26
2022-11-20T19:41:07.987Z,-0.25
2022-11-20T19:42:32.166Z,-0.25
2022-11-20T19:43:56.311Z,-0.24
2022-11-20T19:45:19.529Z,-0.24
2022-11-20T19:46:42.971Z,-0.23
2022-11-20T19:48:08.236Z,-0.20
2022-11-20T19:49:30.935Z,-0.19
2022-11-20T19:50:51.569Z,-0.20
2022-11-20T19:52:13.780Z,-0.18
2022-11-20T19:53:36.003Z,-0.17
2022-11-20T19:54:58.656Z,-0.14
2022-11-20T19:56:21.173Z,-0.11
2022-11-20T19:57:45.636Z,-0.07
2022-11-20T19:59:09.992Z,-0.04
2022-11-20T20:00:40.426Z,-0.01
2022-11-20T20:02:03.797Z,0.04
2022-11-20T20:03:24.974Z,0.07
2022-11-20T20:04:47.361Z,0.10
2022-11-20T20:06:11.735Z,0.14
2022-11-20T20:07:40.225Z,0.18
2022-11-20T20:09:05.113Z,0.22
2022-11-20T20:10:28.724Z,0.26
2022-11-20T20:11:51.190Z,0.29
2022-11-20T20:13:15.003Z,0.33
2022-11-20T20:14:37.595Z,0.36
2022-11-20T20:15:59.530Z,0.40
2022-11-20T20:17:21.724Z,0.42
2022-11-20T20:18:46.929Z,0.45
2022-11-20T20:20:15.812Z,0.47
2022-11-20T20:21:39.719Z,0.48
2022-11-20T20:23:02.932Z,0.49
2022-11-20T20:24:25.188Z,0.49
2022-11-20T20:25:50.000Z,0.48
2022-11-20T20:27:12.227Z,0.48
2022-11-20T20:28:37.473Z,0.48
2022-11-20T20:30:00.067Z,0.47
2022-11-20T20:31:27.064Z,0.46
2022-11-20T20:32:53.446Z,0.43
2022-11-20T20:34:17.656Z,0.41
2022-11-20T20:35:42.730Z,0.37
2022-11-20T20:37:05.554Z,0.32
2022-11-20T20:38:30.115Z,0.29
2022-11-20T20:39:54.570Z,0.24
2022-11-20T20:41:20.238Z,0.21
2022-11-20T20:42:45.238Z,0.15
2022-11-20T20:45:01.128Z,0.09
2022-11-20T20:46:23.748Z,0.03
2022-11-20T20:47:46.344Z,-0.02
2022-11-20T20:49:09.141Z,-0.06
2022-11-20T20:51:09.410Z,-0.10
2022-11-20T20:52:38.470Z,-0.16
2022-11-20T20:54:01.014Z,-0.21
2022-11-20T20:55:29.250Z,-0.25
2022-11-20T20:56:59.276Z,-0.29
2022-11-20T21:00:09.362Z,-0.37
2022-11-20T21:01:31.823Z,-0.39
2022-11-20T21:02:58.946Z,-0.43
2022-11-20T21:04:21.331Z,-0.47
2022-11-20T21:05:43.413Z,-0.50
2022-11-20T21:07:07.450Z,-0.52
2022-11-20T21:08:45.275Z,-0.56
2022-11-20T21:10:11.048Z,-0.60
2022-11-20T21:11:33.535Z,-0.62
2022-11-20T21:12:55.941Z,-0.66
2022-11-20T21:14:18.536Z,-0.67
2022-11-20T21:15:42.870Z,-0.72
2022-11-20T21:17:05.432Z,-0.73
2022-11-20T21:18:34.241Z,-0.76
2022-11-20T21:19:56.420Z,-0.78
2022-11-20T21:21:36.924Z,-0.80
2022-11-20T21:23:01.621Z,-0.83
2022-11-20T21:24:30.960Z,-0.85